This is the latest recevied weather packets stored in our database for station/object WP3OF-1. If no packets are shown the sender has not sent any weather packets the latest 1 day(s).
| Time | Temp. | Humidity | Pressure | Rain* | Wind** | Luminosity | Snow |
|---|---|---|---|---|---|---|---|
| 1778021528 | 26.11° C | 84% | 1017.8 hPa | 0 mm | - | - | - |
| 1778019707 | 26.67° C | 82% | 1017.5 hPa | 0 mm | - | - | - |
| 1778018798 | 27.22° C | 81% | 1017 hPa | 0 mm | - | - | - |
| 1778018193 | 27.22° C | 80% | 1017.3 hPa | 0 mm | - | - | - |
| 1778015770 | 27.78° C | 75% | 1017.1 hPa | 0 mm | - | - | - |
| 1778015164 | 27.78° C | 73% | 1017 hPa | 0 mm | - | - | - |
| 1778014861 | 27.78° C | 76% | 1016.9 hPa | 0 mm | - | - | - |
| 1778012740 | 28.33° C | 77% | 1017.2 hPa | 0 mm | - | - | - |
| 1778011831 | 28.89° C | 75% | 1017.2 hPa | 0 mm | - | - | - |
| 1778010921 | 28.33° C | 75% | 1017.3 hPa | 0 mm | - | - | - |
| 1778007285 | 29.44° C | 72% | 1017.3 hPa | 0 mm | - | - | - |
| 1778006374 | 29.44° C | 71% | 1017.3 hPa | 0 mm | - | - | - |
| 1778005768 | 29.44° C | 72% | 1017.6 hPa | 0 mm | - | - | - |
| 1778005465 | 28.33° C | 72% | 1017.7 hPa | 0 mm | - | - | - |
| 1778005161 | 28.33° C | 73% | 1017.7 hPa | 0 mm | - | - | - |
| 1778004859 | 29.44° C | 71% | 1017.8 hPa | 0 mm | - | - | - |
| 1778003948 | 28.89° C | 71% | 1017.7 hPa | 0 mm | - | - | - |
| 1778003644 | 30° C | 66% | 1017.8 hPa | 0 mm | - | - | - |
| 1778002128 | 29.44° C | 71% | 1018.2 hPa | 0 mm | - | - | - |
| 1778001222 | 29.44° C | 72% | 1018.3 hPa | 0 mm | - | - | - |
| 1778000919 | 29.44° C | 71% | 1018.3 hPa | 0 mm | - | - | - |
| 1777998796 | 28.89° C | 72% | 1018.4 hPa | 0 mm | - | - | - |
| 1777998494 | 28.89° C | 72% | 1018.5 hPa | 0 mm | - | - | - |
* Rain latest hour (hover to see other rain measurements)
** Current wind speed in m/s (hover to see current wind gust speed)